Terminal Aerodrome Forecast
Issued by NWS Denver/Boulder, CO

Home | Current Version | Previous Version | Text Only | Print | Product List | Glossary On
Versions: 1 2 3 4 5 6 7 8 9 10 11 12 13 14 15 16 17 18 19 20 21 22 23 24 25 26 27 28 29 30 31 32 33 34 35 36 37 38 39 40 41 42 43 44 45 46 47 48 49 50
000
FTUS45 KBOU 261722
TAFDEN
TAF
KDEN 261722Z 2618/2724 12007KT P6SM BKN100 BKN250
     FM262100 10008KT P6SM VCTS BKN070CB BKN150
     FM270300 16009KT P6SM FEW060 BKN110
     FM270500 20009KT P6SM SCT110
     FM271800 11004KT P6SM SCT070 SCT120
     FM272200 13005KT P6SM VCTS BKN070CB BKN120=

USA.gov is the U.S. government's official web portal to all federal, state and local government web resources and services.